Time;durP1;ratioP1;P1;durP2;ratioP2;P2;SDS_P1;SDS_P2;PMS_P1;PMS_P2;Temp;Humidity;BMP_temperature;BMP_pressure;BME280_temperature;BME280_humidity;BME280_pressure;Samples;Min_cycle;Max_cycle;Signal;HPM_P1;HPM_P2
2021/12/01 00:01:09;;;;;;;0.30;0.30;;;;;;;-145.06;0.00;60892.56;4825630;28;20041;-88
2021/12/01 00:03:49;;;;;;;0.50;0.50;;;;;;;-145.06;0.00;60892.56;4816571;28;20038;-88
2021/12/01 00:06:28;;;;;;;0.52;0.50;;;;;;;-145.06;0.00;60892.56;4815000;28;20042;-88
2021/12/01 00:09:07;;;;;;;0.40;0.40;;;;;;;-145.06;0.00;60892.56;4826457;28;20041;-88
2021/12/01 00:11:46;;;;;;;0.50;0.50;;;;;;;-145.06;0.00;60892.56;4828576;28;20037;-88
2021/12/01 00:14:26;;;;;;;0.63;0.53;;;;;;;-145.06;0.00;60892.56;4826616;28;20265;-87
2021/12/01 00:17:10;;;;;;;0.40;0.40;;;;;;;-145.06;0.00;60892.56;4825503;28;20053;-88
2021/12/01 00:19:49;;;;;;;0.80;0.55;;;;;;;-145.06;0.00;60892.56;4825376;28;20029;-87
2021/12/01 00:22:28;;;;;;;0.40;0.40;;;;;;;-145.06;0.00;60892.56;4824775;28;20057;-88
2021/12/01 00:25:10;;;;;;;0.60;0.50;;;;;;;-145.06;0.00;60892.56;4806270;28;20050;-87
2021/12/01 00:27:51;;;;;;;0.50;0.47;;;;;;;-145.06;0.00;60892.56;4829496;28;20369;-88
2021/12/01 00:30:30;;;;;;;0.50;0.50;;;;;;;-145.06;0.00;60892.56;4817148;28;20037;-87
2021/12/01 00:33:13;;;;;;;0.70;0.60;;;;;;;-145.06;0.00;60892.56;4821384;28;20368;-87
2021/12/01 00:35:55;;;;;;;0.82;0.70;;;;;;;-145.06;0.00;60892.56;4843202;28;20281;-88
2021/12/01 00:38:35;;;;;;;0.57;0.50;;;;;;;-145.06;0.00;60892.56;4823388;28;20030;-88
2021/12/01 00:41:15;;;;;;;0.90;0.50;;;;;;;-145.06;0.00;60892.56;4838598;28;20470;-89
2021/12/01 00:43:54;;;;;;;;;;;;;;;-145.06;0.00;60892.56;4817109;28;20392;-88
2021/12/01 00:46:53;;;;;;;0.73;0.50;;;;;;;-145.06;0.00;60892.56;4833261;28;19969;-88
2021/12/01 00:49:34;;;;;;;0.50;0.40;;;;;;;-145.06;0.00;60892.56;4826790;28;20412;-87
2021/12/01 00:52:13;;;;;;;0.40;0.40;;;;;;;-145.06;0.00;60892.56;4807952;28;20109;-88
2021/12/01 00:54:52;;;;;;;0.67;0.53;;;;;;;-145.06;0.00;60892.56;4834894;28;20590;-88
2021/12/01 00:57:31;;;;;;;0.40;0.40;;;;;;;-145.06;0.00;60892.56;4816622;28;20479;-88
2021/12/01 01:00:11;;;;;;;0.85;0.55;;;;;;;-145.06;0.00;60892.56;4838548;28;20026;-88
2021/12/01 01:02:50;;;;;;;0.60;0.57;;;;;;;-145.06;0.00;60892.56;4817732;28;20116;-88
2021/12/01 01:05:30;;;;;;;0.70;0.47;;;;;;;-145.06;0.00;60892.56;4821774;28;20026;-87
2021/12/01 01:08:10;;;;;;;0.40;0.40;;;;;;;-145.06;0.00;60892.56;4848714;28;20033;-88
2021/12/01 01:16:35;;;;;;;0.73;0.50;;;;;;;187.52;0.00;60892.56;4841840;28;20172;-88
2021/12/01 01:19:14;;;;;;;0.80;0.60;;;;;;;-145.06;0.00;60892.56;4834557;28;20034;-87
2021/12/01 01:21:55;;;;;;;0.70;0.60;;;;;;;9.62;0.00;60892.56;4824998;28;20281;-87
2021/12/01 01:24:35;;;;;;;1.65;0.70;;;;;;;-145.06;0.00;60892.56;4823263;28;20614;-88
2021/12/01 01:27:14;;;;;;;0.85;0.73;;;;;;;-145.06;0.00;60892.56;4820124;28;20042;-88
2021/12/01 01:29:53;;;;;;;0.60;0.60;;;;;;;10.68;0.00;60892.56;4804914;28;20034;-87
2021/12/01 01:32:34;;;;;;;0.83;0.67;;;;;;;10.68;0.00;60892.56;4833122;28;20042;-88
2021/12/01 01:35:13;;;;;;;1.05;0.95;;;;;;;-145.06;0.00;60892.56;4824895;28;20061;-87
2021/12/01 01:37:52;;;;;;;1.27;0.90;;;;;;;9.62;0.00;60892.56;4822301;28;20022;-87
2021/12/01 01:40:31;;;;;;;1.13;0.98;;;;;;;-145.06;0.00;60892.56;4831558;28;20030;-87
2021/12/01 01:43:11;;;;;;;1.35;1.00;;;;;;;-145.06;0.00;60892.56;4810907;28;20034;-87
2021/12/01 01:45:53;;;;;;;;;;;;;;;-145.06;0.00;60892.56;4828083;28;20037;-87
2021/12/01 01:48:44;;;;;;;1.40;1.20;;;;;;;-145.06;0.00;60892.56;4814150;28;19916;-88
2021/12/01 01:51:26;;;;;;;1.75;1.30;;;;;;;-145.06;0.00;60892.56;4814894;28;20023;-87
2021/12/01 01:54:05;;;;;;;1.30;1.17;;;;;;;-145.06;0.00;60892.56;4828015;28;20025;-88
2021/12/01 01:56:44;;;;;;;1.30;1.20;;;;;;;-145.06;0.00;60892.56;4843260;28;20360;-87
2021/12/01 01:59:23;;;;;;;1.48;1.38;;;;;;;-145.06;0.00;60892.56;4828876;28;21070;-88
2021/12/01 02:02:03;;;;;;;1.47;1.27;;;;;;;9.56;0.00;60892.56;4831409;28;20042;-88
2021/12/01 02:04:43;;;;;;;1.88;1.20;;;;;;;9.54;0.00;60892.56;4824301;28;20042;-87
2021/12/01 02:07:22;;;;;;;1.40;1.20;;;;;;;9.53;0.00;60892.56;4836790;28;20124;-88
2021/12/01 02:10:01;;;;;;;1.10;1.00;;;;;;;-145.06;0.00;60892.56;4837229;28;20030;-87
2021/12/01 02:12:40;;;;;;;1.45;1.33;;;;;;;9.49;0.00;60892.56;4823951;28;20030;-88
2021/12/01 02:15:19;;;;;;;1.45;1.27;;;;;;;-145.06;0.00;60892.56;4828318;28;20041;-87
2021/12/01 02:17:58;;;;;;;1.43;1.30;;;;;;;-145.06;0.00;60892.56;4854603;28;20034;-87
2021/12/01 02:20:38;;;;;;;1.77;1.33;;;;;;;9.46;0.00;60892.56;4820270;28;20030;-87
2021/12/01 02:23:17;;;;;;;2.28;1.50;;;;;;;21.08;0.00;60892.56;4805752;28;20038;-87
2021/12/01 02:25:56;;;;;;;1.40;1.30;;;;;;;-145.06;0.00;60892.56;4818685;28;20109;-87
2021/12/01 02:28:36;;;;;;;1.60;1.50;;;;;;;-145.06;0.00;60892.56;4822250;28;20033;-88
2021/12/01 02:31:15;;;;;;;2.60;1.92;;;;;;;-145.06;0.00;60892.56;4819649;28;20034;-88
2021/12/01 02:33:55;;;;;;;2.67;2.10;;;;;;;-145.06;0.00;60892.56;4819617;28;20033;-88
2021/12/01 02:36:39;;;;;;;1.77;1.67;;;;;;;-145.06;0.00;60892.56;4841284;28;20364;-89
2021/12/01 02:39:18;;;;;;;2.63;1.60;;;;;;;9.36;0.00;60892.56;4817569;28;20026;-88
2021/12/01 02:42:05;;;;;;;1.70;1.40;;;;;;;9.36;0.00;60892.56;4830138;28;20054;-88
2021/12/01 02:44:44;;;;;;;3.78;2.00;;;;;;;9.37;0.00;60892.56;4803181;28;20062;-89
2021/12/01 02:47:25;;;;;;;2.15;1.70;;;;;;;9.37;0.00;60892.56;4804391;28;20069;-88
2021/12/01 02:50:05;;;;;;;1.75;1.60;;;;;;;-145.06;0.00;60892.56;4807081;28;20388;-87
2021/12/01 02:52:44;;;;;;;;;;;;;;;-145.06;0.00;60892.56;4830322;28;20062;-88
2021/12/01 02:55:27;;;;;;;2.05;1.70;;;;;;;-145.06;0.00;60892.56;4838755;28;20467;-88
2021/12/01 02:58:09;;;;;;;2.22;1.60;;;;;;;9.38;0.00;60892.56;4816066;28;20069;-88
2021/12/01 03:00:50;;;;;;;2.55;1.85;;;;;;;-145.06;0.00;60892.56;4823457;28;20033;-88
2021/12/01 03:03:31;;;;;;;2.33;2.00;;;;;;;9.42;0.00;60892.56;4823786;28;20038;-87
2021/12/01 03:06:12;;;;;;;2.83;1.90;;;;;;;-145.06;0.00;60892.56;4835702;28;20073;-88
2021/12/01 03:08:56;;;;;;;2.00;1.70;;;;;;;-145.06;0.00;60892.56;4843608;28;20029;-88
2021/12/01 03:11:36;;;;;;;2.03;1.65;;;;;;;-145.06;0.00;60892.56;4829049;28;20062;-88
2021/12/01 03:14:17;;;;;;;2.67;1.60;;;;;;;-145.06;0.00;60892.56;4831543;28;20030;-87
2021/12/01 03:16:56;;;;;;;2.03;1.83;;;;;;;-145.06;0.00;60892.56;4828470;28;20377;-88
2021/12/01 03:19:38;;;;;;;3.67;1.90;;;;;;;9.42;0.00;60892.56;4814268;28;20061;-88
2021/12/01 03:22:17;;;;;;;2.00;1.70;;;;;;;9.42;0.00;60892.56;4838932;28;20026;-88
2021/12/01 03:25:07;;;;;;;3.00;2.05;;;;;;;9.41;0.00;60892.56;4826060;28;20368;-88
2021/12/01 03:27:46;;;;;;;1.60;1.25;;;;;;;-145.06;0.00;60892.56;4812947;28;20348;-88
2021/12/01 03:30:25;;;;;;;2.03;1.58;;;;;;;10.68;0.00;60892.56;4837893;28;20034;-89
2021/12/01 03:33:07;;;;;;;2.70;1.88;;;;;;;-145.06;0.00;60892.56;4830301;28;20026;-89
2021/12/01 03:35:48;;;;;;;2.47;2.08;;;;;;;9.39;0.00;60892.56;4839448;28;20076;-88
2021/12/01 03:38:30;;;;;;;2.55;1.70;;;;;;;9.42;0.00;60892.56;4827404;28;20033;-88
2021/12/01 03:41:10;;;;;;;1.90;1.58;;;;;;;9.71;0.00;60892.56;4843956;28;20029;-88
2021/12/01 03:43:52;;;;;;;3.38;2.28;;;;;;;-145.06;0.00;60892.56;4837786;28;20042;-88
2021/12/01 03:46:31;;;;;;;3.10;2.30;;;;;;;-145.06;0.00;60892.56;4846709;28;20038;-88
2021/12/01 03:49:10;;;;;;;3.03;2.10;;;;;;;-145.06;0.00;60892.56;4832101;28;20472;-88
2021/12/01 03:51:52;;;;;;;3.87;2.43;;;;;;;-145.06;0.00;60892.56;4825138;28;20041;-88
2021/12/01 03:54:31;;;;;;;5.63;2.55;;;;;;;-145.06;0.00;60892.56;4817624;28;20465;-88
2021/12/01 03:57:10;;;;;;;2.83;1.98;;;;;;;-145.06;0.00;60892.56;4854921;28;20049;-88
2021/12/01 03:59:49;;;;;;;4.15;2.85;;;;;;;-145.06;0.00;60892.56;4826374;28;20065;-88
2021/12/01 04:02:28;;;;;;;3.67;2.33;;;;;;;-145.06;0.00;60892.56;4829748;28;20053;-88
2021/12/01 04:05:07;;;;;;;4.88;2.60;;;;;;;-145.06;0.00;60892.56;4828738;28;20026;-89
2021/12/01 04:07:46;;;;;;;4.47;2.67;;;;;;;-145.06;0.00;60892.56;4821723;28;20034;-88
2021/12/01 04:10:25;;;;;;;3.70;2.20;;;;;;;-145.06;0.00;60892.56;4827514;28;20057;-89
2021/12/01 04:13:10;;;;;;;2.92;2.47;;;;;;;-145.06;0.00;60892.56;4824588;28;20030;-88
2021/12/01 04:15:49;;;;;;;2.70;1.90;;;;;;;-145.06;0.00;60892.56;4829245;28;20044;-89
2021/12/01 04:18:28;;;;;;;2.25;1.85;;;;;;;-145.06;0.00;60892.56;4839769;28;20033;-88
2021/12/01 04:21:07;;;;;;;2.13;1.80;;;;;;;-145.06;0.00;60892.56;4822835;28;20030;-89
2021/12/01 04:23:50;;;;;;;2.00;1.33;;;;;;;-145.06;0.00;60892.56;4806019;28;20038;-88
2021/12/01 04:26:32;;;;;;;1.90;1.50;;;;;;;-145.06;0.00;60892.56;4807735;28;20109;-89
2021/12/01 04:29:11;;;;;;;1.63;1.25;;;;;;;-145.06;0.00;60892.56;4846006;28;20038;-89
2021/12/01 04:31:50;;;;;;;1.92;1.42;;;;;;;-145.06;0.00;60892.56;4818304;28;20026;-89
2021/12/01 04:34:29;;;;;;;1.00;0.88;;;;;;;-145.06;0.00;60892.56;4824736;28;20030;-88
2021/12/01 04:37:08;;;;;;;1.23;1.00;;;;;;;-145.06;0.00;60892.56;4825460;28;20033;-88
2021/12/01 04:39:47;;;;;;;2.45;1.30;;;;;;;-145.06;0.00;60892.56;4825661;28;20030;-89
2021/12/01 04:42:27;;;;;;;1.13;1.02;;;;;;;-145.06;0.00;60892.56;4824159;28;20030;-89
2021/12/01 04:45:17;;;;;;;2.55;1.00;;;;;;;-145.06;0.00;60892.56;4839667;28;20065;-89
2021/12/01 04:47:56;;;;;;;1.00;0.82;;;;;;;-145.06;0.00;60892.56;4830940;28;20029;-87
2021/12/01 04:50:35;;;;;;;1.20;0.93;;;;;;;-145.06;0.00;60892.56;4825936;28;20041;-89
2021/12/01 04:53:14;;;;;;;1.00;0.90;;;;;;;-145.06;0.00;60892.56;4823132;28;20269;-89
2021/12/01 04:55:54;;;;;;;1.40;1.00;;;;;;;-145.06;0.00;60892.56;4816767;28;20034;-89
2021/12/01 04:58:33;;;;;;;;;;;;;;;-145.06;0.00;60892.56;4820286;28;20293;-88
2021/12/01 05:01:12;;;;;;;1.05;0.90;;;;;;;-145.06;0.00;60892.56;4823000;28;20546;-89
2021/12/01 05:03:51;;;;;;;1.60;0.80;;;;;;;-145.06;0.00;60892.56;4821126;28;20029;-88
2021/12/01 05:06:31;;;;;;;1.42;0.90;;;;;;;-145.06;0.00;60892.56;4816046;28;20276;-88
2021/12/01 05:09:09;;;;;;;1.33;1.00;;;;;;;9.09;0.00;60892.56;4819432;28;20037;-89
2021/12/01 05:11:49;;;;;;;3.08;0.90;;;;;;;-145.06;0.00;60892.56;4838844;28;20123;-88
2021/12/01 05:14:28;;;;;;;1.20;0.93;;;;;;;-145.06;0.00;60892.56;4814064;28;20034;-89
2021/12/01 05:17:07;;;;;;;1.27;0.80;;;;;;;-145.06;0.00;60892.56;4831134;28;20029;-89
2021/12/01 05:19:47;;;;;;;1.30;1.20;;;;;;;9.20;0.00;60892.56;4805251;28;20377;-88
2021/12/01 05:22:26;;;;;;;1.10;0.90;;;;;;;9.20;0.00;60892.56;4834642;28;20483;-88
2021/12/01 05:25:05;;;;;;;1.20;0.80;;;;;;;9.19;0.00;60892.56;4816413;28;20445;-88
2021/12/01 05:27:45;;;;;;;1.55;1.05;;;;;;;-145.06;0.00;60892.56;4824587;28;20937;-87
2021/12/01 05:30:27;;;;;;;1.40;0.88;;;;;;;9.16;0.00;60892.56;4827774;28;20500;-87
2021/12/01 05:33:08;;;;;;;1.02;0.85;;;;;;;9.18;0.00;60892.56;4822530;28;20030;-87
2021/12/01 05:35:48;;;;;;;1.40;0.82;;;;;;;-145.06;0.00;60892.56;4829525;28;20034;-87
2021/12/01 05:38:27;;;;;;;1.42;1.00;;;;;;;9.38;0.00;60892.56;4824399;28;20022;-87
2021/12/01 05:41:05;;;;;;;1.10;0.98;;;;;;;9.10;0.00;60892.56;4821804;28;20037;-86
2021/12/01 05:43:44;;;;;;;0.90;0.70;;;;;;;-145.06;0.00;60892.56;4815763;28;20480;-86
2021/12/01 05:46:23;;;;;;;1.10;0.85;;;;;;;-145.06;0.00;60892.56;4813106;28;20069;-87
2021/12/01 05:49:05;;;;;;;1.00;0.80;;;;;;;-145.06;0.00;60892.56;4812422;28;20070;-87
2021/12/01 05:51:44;;;;;;;0.85;0.77;;;;;;;9.04;0.00;60892.56;4836179;28;20061;-87
2021/12/01 05:54:23;;;;;;;0.63;0.63;;;;;;;-145.06;0.00;60892.56;4820577;28;20113;-86
2021/12/01 05:57:06;;;;;;;0.90;0.63;;;;;;;21.08;0.00;60892.56;4818956;28;20620;-87
2021/12/01 05:59:45;;;;;;;1.05;0.68;;;;;;;9.22;0.00;60892.56;4824754;28;20057;-87
2021/12/01 06:02:24;;;;;;;1.05;0.68;;;;;;;-145.06;0.00;60892.56;4841514;28;20062;-87
2021/12/01 06:05:04;;;;;;;1.33;0.68;;;;;;;-145.06;0.00;60892.56;4826795;28;20145;-86
2021/12/01 06:07:43;;;;;;;;;;;;;;;9.12;0.00;60892.56;4839051;28;20646;-87
2021/12/01 06:10:22;;;;;;;1.17;0.77;;;;;;;-145.06;0.00;60892.56;4822420;28;20355;-87
2021/12/01 06:13:02;;;;;;;0.60;0.60;;;;;;;-145.06;0.00;60892.56;4837218;28;20030;-87
2021/12/01 06:15:41;;;;;;;0.90;0.50;;;;;;;-145.06;0.00;60892.56;4833699;28;20029;-86
2021/12/01 06:18:20;;;;;;;1.53;0.60;;;;;;;-145.06;0.00;60892.56;4828788;28;20544;-86
2021/12/01 06:20:59;;;;;;;0.60;0.40;;;;;;;-145.06;0.00;60892.56;4809358;28;20492;-86
2021/12/01 06:23:38;;;;;;;0.90;0.63;;;;;;;-145.06;0.00;60892.56;4821738;28;20112;-86
2021/12/01 06:26:17;;;;;;;1.42;0.60;;;;;;;9.28;0.00;60892.56;4831809;28;20491;-87
2021/12/01 06:28:58;;;;;;;0.50;0.43;;;;;;;9.29;0.00;60892.56;4845987;28;20380;-86
2021/12/01 06:31:37;;;;;;;0.30;0.30;;;;;;;9.34;0.00;60892.56;4826465;28;20056;-87
2021/12/01 06:34:16;;;;;;;0.70;0.40;;;;;;;-145.06;0.00;60892.56;4812504;28;20021;-87
2021/12/01 06:36:55;;;;;;;0.40;0.40;;;;;;;-145.06;0.00;60892.56;4831561;28;20042;-88
2021/12/01 06:39:35;;;;;;;0.40;0.40;;;;;;;-145.06;0.00;60892.56;4839273;28;20042;-87
2021/12/01 06:42:13;;;;;;;0.53;0.50;;;;;;;-145.06;0.00;60892.56;4835375;28;20046;-87
2021/12/01 06:44:52;;;;;;;0.30;0.30;;;;;;;-145.06;0.00;60892.56;4818852;28;20388;-88
2021/12/01 06:47:31;;;;;;;0.70;0.50;;;;;;;-145.06;0.00;60892.56;4828940;28;20268;-87
2021/12/01 06:50:12;;;;;;;0.77;0.55;;;;;;;-145.06;0.00;60892.56;4824558;28;20057;-87
2021/12/01 06:52:50;;;;;;;;;;;;;;;-145.06;0.00;60892.56;4837430;28;20038;-88
2021/12/01 06:55:30;;;;;;;0.50;0.40;;;;;;;-145.06;0.00;60892.56;4814870;28;19917;-87
2021/12/01 06:58:09;;;;;;;0.40;0.40;;;;;;;-145.06;0.00;60892.56;4829622;28;20124;-88
2021/12/01 07:00:48;;;;;;;0.40;0.40;;;;;;;9.52;0.00;60892.56;4835900;28;20030;-88
2021/12/01 07:03:27;;;;;;;0.40;0.40;;;;;;;9.53;0.00;60892.56;4828782;28;20030;-86
2021/12/01 07:06:06;;;;;;;0.73;0.50;;;;;;;9.52;0.00;60892.56;4820291;28;20065;-87
2021/12/01 07:08:45;;;;;;;0.53;0.33;;;;;;;9.55;0.00;60892.56;4826025;28;20304;-88
2021/12/01 07:11:24;;;;;;;0.57;0.40;;;;;;;-145.06;0.00;60892.56;4833864;28;20037;-88
2021/12/01 07:14:03;;;;;;;0.67;0.50;;;;;;;-145.06;0.00;60892.56;4822195;28;20057;-89
2021/12/01 07:16:41;;;;;;;0.43;0.43;;;;;;;-145.06;0.00;60892.56;4817340;28;20034;-88
2021/12/01 07:19:21;;;;;;;0.30;0.30;;;;;;;-145.06;0.00;60892.56;4821069;28;20030;-88
2021/12/01 07:22:00;;;;;;;0.40;0.20;;;;;;;-145.06;0.00;60892.56;4826579;28;20034;-88
2021/12/01 07:24:39;;;;;;;0.30;0.30;;;;;;;9.51;0.00;60892.56;4815400;28;20050;-88
2021/12/01 07:27:18;;;;;;;0.40;0.40;;;;;;;-145.06;0.00;60892.56;4822336;28;20033;-88
2021/12/01 07:29:57;;;;;;;0.47;0.47;;;;;;;-145.06;0.00;60892.56;4826867;28;20273;-88
2021/12/01 07:32:36;;;;;;;0.40;0.40;;;;;;;9.44;0.00;60892.56;4827330;28;20029;-87
2021/12/01 07:35:16;;;;;;;0.30;0.30;;;;;;;-145.06;0.00;60892.56;4831214;28;20269;-88
2021/12/01 07:37:55;;;;;;;0.38;0.32;;;;;;;-145.06;0.00;60892.56;4822752;28;20039;-89
2021/12/01 07:40:34;;;;;;;0.40;0.40;;;;;;;9.44;0.00;60892.56;4832001;28;20484;-88
2021/12/01 07:43:14;;;;;;;0.55;0.30;;;;;;;-145.06;0.00;60892.56;4829652;28;20276;-88
2021/12/01 07:45:53;;;;;;;0.33;0.33;;;;;;;-145.06;0.00;60892.56;4834707;28;20037;-89
2021/12/01 07:48:32;;;;;;;0.65;0.50;;;;;;;9.45;0.00;60892.56;4806454;28;20269;-88
2021/12/01 07:51:12;;;;;;;0.43;0.43;;;;;;;9.47;0.00;60892.56;4837175;28;20511;-88
2021/12/01 07:53:54;;;;;;;0.30;0.30;;;;;;;9.51;0.00;60892.56;4821981;28;20030;-88
2021/12/01 07:56:33;;;;;;;0.60;0.40;;;;;;;9.49;0.00;60892.56;4823409;28;20373;-89
2021/12/01 07:59:15;;;;;;;0.30;0.30;;;;;;;-145.06;0.00;60892.56;4823958;28;20022;-88
2021/12/01 08:01:54;;;;;;;0.55;0.40;;;;;;;9.52;0.00;60892.56;4825540;28;20026;-88
2021/12/01 08:04:33;;;;;;;0.35;0.20;;;;;;;-145.06;0.00;60892.56;4825429;28;20030;-88
2021/12/01 08:07:13;;;;;;;0.43;0.35;;;;;;;9.61;0.00;60892.56;4850164;28;20065;-89
2021/12/01 08:09:52;;;;;;;0.30;0.30;;;;;;;-145.06;0.00;60892.56;4831853;28;20061;-87
2021/12/01 08:12:34;;;;;;;0.47;0.30;;;;;;;-145.06;0.00;60892.56;4825623;28;20038;-88
2021/12/01 08:15:14;;;;;;;0.50;0.40;;;;;;;-145.06;0.00;60892.56;4825083;28;20034;-88
2021/12/01 08:17:53;;;;;;;0.47;0.40;;;;;;;-145.06;0.00;60892.56;4840552;28;20041;-88
2021/12/01 08:20:33;;;;;;;0.40;0.30;;;;;;;-145.06;0.00;60892.56;4820883;28;20069;-89
2021/12/01 08:23:12;;;;;;;0.38;0.38;;;;;;;-145.06;0.00;60892.56;4829740;28;20046;-88
2021/12/01 08:25:51;;;;;;;0.40;0.40;;;;;;;-145.06;0.00;60892.56;4825388;28;20029;-88
2021/12/01 08:28:30;;;;;;;0.20;0.20;;;;;;;-145.06;0.00;60892.56;4824798;28;20034;-88
2021/12/01 08:31:09;;;;;;;0.60;0.40;;;;;;;-145.06;0.00;60892.56;4825783;28;20033;-88
2021/12/01 08:33:49;;;;;;;0.27;0.27;;;;;;;-145.06;0.00;60892.56;4826921;28;20049;-88
2021/12/01 08:36:28;;;;;;;0.55;0.20;;;;;;;-145.06;0.00;60892.56;4815502;28;20261;-88
2021/12/01 08:39:11;;;;;;;0.73;0.38;;;;;;;-145.06;0.00;60892.56;4825274;28;20479;-88
2021/12/01 08:41:49;;;;;;;0.20;0.20;;;;;;;-145.06;0.00;60892.56;4825057;28;20033;-88
2021/12/01 08:44:29;;;;;;;0.20;0.20;;;;;;;-145.06;0.00;60892.56;4838613;28;20030;-87
2021/12/01 08:47:09;;;;;;;0.22;0.22;;;;;;;-145.06;0.00;60892.56;4846190;28;20369;-87
2021/12/01 08:49:48;;;;;;;0.40;0.40;;;;;;;-145.06;0.00;60892.56;4843755;28;20034;-88
2021/12/01 08:52:27;;;;;;;0.40;0.30;;;;;;;-145.06;0.00;60892.56;4829659;28;20100;-88
2021/12/01 08:55:07;;;;;;;0.40;0.30;;;;;;;-145.06;0.00;60892.56;4821663;28;20058;-87
2021/12/01 08:57:46;;;;;;;0.30;0.30;;;;;;;-145.06;0.00;60892.56;4822203;28;20021;-87
2021/12/01 09:00:27;;;;;;;0.30;0.30;;;;;;;-145.06;0.00;60892.56;4805714;28;20030;-88
2021/12/01 09:03:07;;;;;;;0.20;0.20;;;;;;;-145.06;0.00;60892.56;4827239;28;20025;-87
2021/12/01 09:05:46;;;;;;;0.20;0.20;;;;;;;-145.06;0.00;60892.56;4833409;28;20373;-87
2021/12/01 09:08:25;;;;;;;;;;;;;;;-145.06;0.00;60892.56;4831360;28;20038;-88
2021/12/01 09:11:04;;;;;;;0.30;0.30;;;;;;;-145.06;0.00;60892.56;4831298;28;19909;-87
2021/12/01 09:13:43;;;;;;;0.30;0.30;;;;;;;-145.06;0.00;60892.56;4837243;28;20022;-87
2021/12/01 09:16:23;;;;;;;0.55;0.47;;;;;;;-145.06;0.00;60892.56;4824038;28;20385;-88
2021/12/01 09:19:02;;;;;;;0.30;0.30;;;;;;;-145.06;0.00;60892.56;4833309;28;20034;-88
2021/12/01 09:21:41;;;;;;;0.45;0.28;;;;;;;-145.06;0.00;60892.56;4821062;28;20018;-88
2021/12/01 09:24:21;;;;;;;0.30;0.30;;;;;;;-145.06;0.00;60892.56;4840005;28;20037;-86
2021/12/01 09:27:03;;;;;;;0.17;0.17;;;;;;;-145.06;0.00;60892.56;4841779;28;20037;-87
2021/12/01 09:29:42;;;;;;;0.20;0.20;;;;;;;-145.06;0.00;60892.56;4832037;28;20034;-87
2021/12/01 09:32:21;;;;;;;0.40;0.30;;;;;;;-145.06;0.00;60892.56;4820634;28;20477;-88
2021/12/01 09:35:00;;;;;;;0.20;0.20;;;;;;;-145.06;0.00;60892.56;4820406;28;20038;-87
2021/12/01 09:37:41;;;;;;;0.25;0.25;;;;;;;-145.06;0.00;60892.56;4833112;28;20026;-87
2021/12/01 09:40:20;;;;;;;0.30;0.30;;;;;;;-145.06;0.00;60892.56;4830288;28;20030;-86
2021/12/01 09:42:59;;;;;;;0.20;0.20;;;;;;;-145.06;0.00;60892.56;4823596;28;20110;-87
2021/12/01 09:45:41;;;;;;;0.30;0.30;;;;;;;-145.06;0.00;60892.56;4825894;28;20029;-86
2021/12/01 09:48:21;;;;;;;0.30;0.30;;;;;;;-145.06;0.00;60892.56;4837021;28;20041;-87
2021/12/01 09:51:00;;;;;;;0.43;0.40;;;;;;;-145.06;0.00;60892.56;4820852;28;20025;-86
2021/12/01 09:53:39;;;;;;;0.50;0.45;;;;;;;-145.06;0.00;60892.56;4827333;28;20021;-87
2021/12/01 09:56:17;;;;;;;0.30;0.30;;;;;;;-145.06;0.00;60892.56;4835191;28;20038;-87
2021/12/01 09:58:57;;;;;;;0.30;0.30;;;;;;;-145.06;0.00;60892.56;4819401;28;20026;-88
2021/12/01 10:01:38;;;;;;;0.30;0.30;;;;;;;-145.06;0.00;60892.56;4825142;28;20033;-87
2021/12/01 10:04:18;;;;;;;0.38;0.30;;;;;;;-145.06;0.00;60892.56;4835743;28;20418;-88
2021/12/01 10:07:16;;;;;;;0.28;0.28;;;;;;;-145.06;0.00;60892.56;4826377;28;20420;-87
2021/12/01 10:09:57;;;;;;;0.20;0.20;;;;;;;10.16;0.00;60892.56;4830097;28;20069;-87
2021/12/01 10:12:45;;;;;;;0.20;0.20;;;;;;;-145.06;0.00;60892.56;4825877;28;20033;-87
2021/12/01 10:15:29;;;;;;;0.20;0.20;;;;;;;-145.06;0.00;60892.56;4826557;28;20022;-87
2021/12/01 10:18:10;;;;;;;0.20;0.20;;;;;;;-145.06;0.00;60892.56;4820993;28;20034;-87
2021/12/01 10:21:09;;;;;;;0.28;0.28;;;;;;;-145.06;0.00;60892.56;4837538;28;20037;-87
2021/12/01 10:23:54;;;;;;;1.75;0.30;;;;;;;10.29;0.00;60892.56;4826152;28;20361;-87
2021/12/01 10:26:41;;;;;;;0.43;0.30;;;;;;;-145.06;0.00;60892.56;4825476;28;20037;-88
2021/12/01 10:29:22;;;;;;;0.20;0.20;;;;;;;10.32;0.00;60892.56;4826598;28;20482;-87
2021/12/01 10:32:14;;;;;;;0.20;0.20;;;;;;;10.68;0.00;60892.56;4845308;28;20041;-87
2021/12/01 10:34:57;;;;;;;0.22;0.22;;;;;;;-145.06;0.00;60892.56;4832920;28;20030;-87
2021/12/01 10:37:37;;;;;;;0.10;0.10;;;;;;;-145.06;0.00;60892.56;4803908;28;20503;-87
2021/12/01 10:40:21;;;;;;;0.30;0.30;;;;;;;-145.06;0.00;60892.56;4820740;28;20483;-87
2021/12/01 10:43:09;;;;;;;0.30;0.30;;;;;;;-145.06;0.00;60892.56;4822402;28;20137;-87
2021/12/01 10:45:48;;;;;;;0.20;0.20;;;;;;;-145.06;0.00;60892.56;4837101;28;20620;-87
2021/12/01 10:48:28;;;;;;;0.30;0.30;;;;;;;10.59;0.00;60892.56;4845287;28;20352;-87
2021/12/01 10:51:10;;;;;;;0.47;0.40;;;;;;;-145.06;0.00;60892.56;4816153;28;20116;-87
2021/12/01 10:53:56;;;;;;;0.22;0.22;;;;;;;-145.06;0.00;60892.56;4830276;28;20483;-87
2021/12/01 10:56:36;;;;;;;0.32;0.32;;;;;;;-145.06;0.00;60892.56;4813178;28;20419;-87
2021/12/01 10:59:16;;;;;;;;;;;;;;;-145.06;0.00;60892.56;4826744;28;20026;-87
2021/12/01 11:02:09;;;;;;;0.30;0.30;;;;;;;-145.06;0.00;60892.56;4822158;28;19913;-88
2021/12/01 11:04:50;;;;;;;0.30;0.30;;;;;;;-145.06;0.00;60892.56;4838077;28;20034;-87
2021/12/01 11:07:32;;;;;;;0.32;0.30;;;;;;;-145.06;0.00;60892.56;4821241;28;20413;-88
2021/12/01 11:10:18;;;;;;;0.30;0.30;;;;;;;-145.06;0.00;60892.56;4826727;28;20491;-87
2021/12/01 11:12:59;;;;;;;0.30;0.25;;;;;;;-145.06;0.00;60892.56;4814741;28;20034;-88
2021/12/01 11:15:41;;;;;;;0.30;0.30;;;;;;;-145.06;0.00;60892.56;4818798;28;20511;-87
2021/12/01 11:18:23;;;;;;;0.30;0.30;;;;;;;-145.06;0.00;60892.56;4829540;28;20373;-86
2021/12/01 11:21:07;;;;;;;0.30;0.30;;;;;;;-145.06;0.00;60892.56;4823360;28;20484;-87
2021/12/01 11:23:52;;;;;;;0.20;0.20;;;;;;;-145.06;0.00;60892.56;4842613;28;20021;-87
2021/12/01 11:26:35;;;;;;;0.30;0.30;;;;;;;-145.06;0.00;60892.56;4822544;28;20021;-87
2021/12/01 11:29:16;;;;;;;0.88;0.30;;;;;;;10.32;0.00;60892.56;4834005;28;20029;-86
2021/12/01 11:31:58;;;;;;;0.20;0.20;;;;;;;10.27;0.00;60892.56;4836139;28;20038;-88
2021/12/01 11:34:37;;;;;;;0.40;0.40;;;;;;;-145.06;0.00;60892.56;4834694;28;20033;-87
2021/12/01 11:37:16;;;;;;;0.40;0.40;;;;;;;-145.06;0.00;60892.56;4839811;28;20029;-87
2021/12/01 11:39:56;;;;;;;;;;;;;;;-145.06;0.00;60892.56;4826175;28;20030;-87
2021/12/01 11:42:36;;;;;;;;;;;;;;;-145.06;0.00;60892.56;4850600;28;19909;-87
2021/12/01 11:45:15;;;;;;;0.40;0.40;;;;;;;-145.06;0.00;60892.56;4824415;28;20011;-87
2021/12/01 11:47:55;;;;;;;0.40;0.40;;;;;;;10.05;0.00;60892.56;4834197;28;20018;-86
2021/12/01 11:50:39;;;;;;;0.30;0.30;;;;;;;-145.06;0.00;60892.56;4826065;28;20360;-87
2021/12/01 11:53:21;;;;;;;0.30;0.30;;;;;;;-145.06;0.00;60892.56;4824374;28;20475;-86
2021/12/01 11:56:25;;;;;;;0.40;0.40;;;;;;;-145.06;0.00;60892.56;4845059;28;20041;-87
2021/12/01 11:59:13;;;;;;;0.50;0.50;;;;;;;-145.06;0.00;60892.56;4821612;28;20387;-87
2021/12/01 12:02:02;;;;;;;2.40;0.60;;;;;;;-145.06;0.00;60892.56;4827744;28;20034;-86
2021/12/01 12:04:49;;;;;;;1.42;0.73;;;;;;;10.68;0.00;60892.56;4822148;28;20030;-87
2021/12/01 12:07:33;;;;;;;0.70;0.60;;;;;;;-145.06;0.00;60892.56;4839364;28;20440;-86
2021/12/01 12:10:13;;;;;;;0.90;0.57;;;;;;;-145.06;0.00;60892.56;4824270;28;20038;-87
2021/12/01 12:13:00;;;;;;;1.13;0.60;;;;;;;-145.06;0.00;60892.56;4825042;28;20416;-87
2021/12/01 12:15:41;;;;;;;1.45;0.90;;;;;;;-145.06;0.00;60892.56;4812566;28;20030;-87
2021/12/01 12:18:49;;;;;;;1.05;0.75;;;;;;;-145.06;0.00;60892.56;4826808;28;20033;-87
2021/12/01 12:21:58;;;;;;;5.22;1.67;;;;;;;-145.06;0.00;60892.56;4816853;28;20108;-87
2021/12/01 12:24:50;;;;;;;3.63;1.50;;;;;;;-145.06;0.00;60892.56;4829759;28;20470;-87
2021/12/01 12:27:42;;;;;;;2.88;1.20;;;;;;;-145.06;0.00;60892.56;4830470;28;20038;-87
2021/12/01 12:30:30;;;;;;;2.70;1.60;;;;;;;-145.06;0.00;60892.56;4819226;28;20117;-87
2021/12/01 12:33:18;;;;;;;1.90;1.38;;;;;;;-145.06;0.00;60892.56;4819666;28;20090;-87
2021/12/01 12:36:05;;;;;;;3.38;1.60;;;;;;;-145.06;0.00;60892.56;4816750;28;20030;-87
2021/12/01 12:39:10;;;;;;;2.17;1.40;;;;;;;-145.06;0.00;60892.56;4840021;28;20049;-87
2021/12/01 12:42:09;;;;;;;2.38;1.85;;;;;;;-145.06;0.00;60892.56;4831227;28;20532;-88